Terminal Aerodrome Forecast
Issued by NWS

Home | Current Version | Previous Version | Text Only | Print | Product List | Glossary On
Versions: 1 2 3 4 5 6 7 8 9 10 11 12 13 14 15
046
FTUS45 KABQ 160647 AAA
TAFAEG
TAF AMD
KAEG 160647Z 1607/1706 VRB05KT P6SM SKC
     FM162000 18006KT P6SM SCT150 BKN200
      AMD NOT SKED=

USA.gov is the U.S. government's official web portal to all federal, state and local government web resources and services.